sensor_id;sensor_type;location;lat;lon;timestamp;pressure;altitude;pressure_sealevel;temperature;humidity
57412;BME280;43247;52.828;-8.980;2023-02-28T00:00:28;103746.70;;;6.91;78.30
57412;BME280;43247;52.828;-8.980;2023-02-28T00:01:29;103747.96;;;6.90;78.25
57412;BME280;43247;52.828;-8.980;2023-02-28T00:02:29;103747.66;;;6.91;78.22
57412;BME280;43247;52.828;-8.980;2023-02-28T00:03:29;103751.58;;;6.95;78.15
57412;BME280;43247;52.828;-8.980;2023-02-28T00:04:30;103749.58;;;6.95;78.13
57412;BME280;43247;52.828;-8.980;2023-02-28T00:05:30;103749.02;;;6.94;78.18
57412;BME280;43247;52.828;-8.980;2023-02-28T00:06:30;103747.87;;;6.93;78.19
57412;BME280;43247;52.828;-8.980;2023-02-28T00:07:31;103746.50;;;6.92;78.29
57412;BME280;43247;52.828;-8.980;2023-02-28T00:08:31;103745.63;;;6.90;78.25
57412;BME280;43247;52.828;-8.980;2023-02-28T00:09:31;103744.85;;;6.90;78.29
57412;BME280;43247;52.828;-8.980;2023-02-28T00:10:31;103747.10;;;6.89;78.40
57412;BME280;43247;52.828;-8.980;2023-02-28T00:11:31;103749.07;;;6.89;78.35
57412;BME280;43247;52.828;-8.980;2023-02-28T00:12:32;103750.37;;;6.88;78.43
57412;BME280;43247;52.828;-8.980;2023-02-28T00:13:34;103749.54;;;6.88;78.46
57412;BME280;43247;52.828;-8.980;2023-02-28T00:14:32;103748.70;;;6.87;78.45
57412;BME280;43247;52.828;-8.980;2023-02-28T00:15:33;103749.47;;;6.87;78.57
57412;BME280;43247;52.828;-8.980;2023-02-28T00:16:33;103750.48;;;6.87;78.57
57412;BME280;43247;52.828;-8.980;2023-02-28T00:17:33;103752.23;;;6.86;78.56
57412;BME280;43247;52.828;-8.980;2023-02-28T00:18:34;103751.17;;;6.87;78.55
57412;BME280;43247;52.828;-8.980;2023-02-28T00:19:34;103751.93;;;6.87;78.57
57412;BME280;43247;52.828;-8.980;2023-02-28T00:20:34;103752.12;;;6.87;78.60
57412;BME280;43247;52.828;-8.980;2023-02-28T00:21:34;103752.98;;;6.87;78.53
57412;BME280;43247;52.828;-8.980;2023-02-28T00:22:35;103753.94;;;6.86;78.53
57412;BME280;43247;52.828;-8.980;2023-02-28T00:23:35;103756.11;;;6.87;78.57
57412;BME280;43247;52.828;-8.980;2023-02-28T00:24:35;103760.08;;;6.86;78.54
57412;BME280;43247;52.828;-8.980;2023-02-28T00:25:35;103760.66;;;6.86;78.51
57412;BME280;43247;52.828;-8.980;2023-02-28T00:26:35;103760.77;;;6.86;78.60
57412;BME280;43247;52.828;-8.980;2023-02-28T00:27:36;103761.72;;;6.85;78.58
57412;BME280;43247;52.828;-8.980;2023-02-28T00:28:36;103763.64;;;6.85;78.50
57412;BME280;43247;52.828;-8.980;2023-02-28T00:29:36;103761.39;;;6.86;78.49
57412;BME280;43247;52.828;-8.980;2023-02-28T00:30:36;103762.57;;;6.85;78.51
57412;BME280;43247;52.828;-8.980;2023-02-28T00:31:36;103760.85;;;6.85;78.51
57412;BME280;43247;52.828;-8.980;2023-02-28T00:32:36;103760.98;;;6.84;78.53
57412;BME280;43247;52.828;-8.980;2023-02-28T00:33:37;103763.02;;;6.84;78.51
57412;BME280;43247;52.828;-8.980;2023-02-28T00:34:37;103764.10;;;6.83;78.58
57412;BME280;43247;52.828;-8.980;2023-02-28T00:35:38;103768.07;;;6.83;78.52
57412;BME280;43247;52.828;-8.980;2023-02-28T00:36:38;103770.00;;;6.83;78.52
57412;BME280;43247;52.828;-8.980;2023-02-28T00:37:38;103770.13;;;6.83;78.58
57412;BME280;43247;52.828;-8.980;2023-02-28T00:38:39;103769.29;;;6.82;78.60
57412;BME280;43247;52.828;-8.980;2023-02-28T00:39:39;103769.04;;;6.81;78.68
57412;BME280;43247;52.828;-8.980;2023-02-28T00:40:39;103771.14;;;6.81;78.64
57412;BME280;43247;52.828;-8.980;2023-02-28T00:41:39;103771.54;;;6.81;78.65
57412;BME280;43247;52.828;-8.980;2023-02-28T00:42:40;103770.38;;;6.81;78.65
57412;BME280;43247;52.828;-8.980;2023-02-28T00:43:40;103771.93;;;6.81;78.63
57412;BME280;43247;52.828;-8.980;2023-02-28T00:44:41;103771.77;;;6.81;78.69
57412;BME280;43247;52.828;-8.980;2023-02-28T00:45:41;103770.02;;;6.80;78.66
57412;BME280;43247;52.828;-8.980;2023-02-28T00:46:41;103769.53;;;6.80;78.64
57412;BME280;43247;52.828;-8.980;2023-02-28T00:47:42;103769.15;;;6.80;78.70
57412;BME280;43247;52.828;-8.980;2023-02-28T00:48:42;103770.02;;;6.80;78.70
57412;BME280;43247;52.828;-8.980;2023-02-28T00:49:43;103770.99;;;6.79;78.63
57412;BME280;43247;52.828;-8.980;2023-02-28T00:50:43;103772.66;;;6.79;78.66
57412;BME280;43247;52.828;-8.980;2023-02-28T00:51:43;103772.10;;;6.79;78.67
57412;BME280;43247;52.828;-8.980;2023-02-28T00:52:44;103772.85;;;6.79;78.72
57412;BME280;43247;52.828;-8.980;2023-02-28T00:53:44;103771.03;;;6.79;78.73
57412;BME280;43247;52.828;-8.980;2023-02-28T00:54:45;103769.09;;;6.79;78.82
57412;BME280;43247;52.828;-8.980;2023-02-28T00:55:45;103769.98;;;6.79;78.77
57412;BME280;43247;52.828;-8.980;2023-02-28T00:56:46;103768.15;;;6.79;78.88
57412;BME280;43247;52.828;-8.980;2023-02-28T00:57:46;103769.70;;;6.80;78.87
57412;BME280;43247;52.828;-8.980;2023-02-28T00:58:47;103770.55;;;6.79;78.87
57412;BME280;43247;52.828;-8.980;2023-02-28T00:59:47;103770.62;;;6.79;78.85
57412;BME280;43247;52.828;-8.980;2023-02-28T01:00:48;103770.90;;;6.80;78.79
57412;BME280;43247;52.828;-8.980;2023-02-28T01:01:48;103771.10;;;6.80;78.72
57412;BME280;43247;52.828;-8.980;2023-02-28T01:02:48;103769.81;;;6.79;78.63
57412;BME280;43247;52.828;-8.980;2023-02-28T01:03:48;103768.67;;;6.79;78.71
57412;BME280;43247;52.828;-8.980;2023-02-28T01:04:49;103767.07;;;6.79;78.72
57412;BME280;43247;52.828;-8.980;2023-02-28T01:05:49;103765.08;;;6.78;78.68
57412;BME280;43247;52.828;-8.980;2023-02-28T01:06:49;103766.13;;;6.78;78.70
57412;BME280;43247;52.828;-8.980;2023-02-28T01:07:50;103767.09;;;6.78;78.66
57412;BME280;43247;52.828;-8.980;2023-02-28T01:08:50;103771.62;;;6.78;78.68
57412;BME280;43247;52.828;-8.980;2023-02-28T01:09:51;103774.80;;;6.78;78.66
57412;BME280;43247;52.828;-8.980;2023-02-28T01:10:52;103775.19;;;6.78;78.71
57412;BME280;43247;52.828;-8.980;2023-02-28T01:11:52;103776.81;;;6.78;78.67
57412;BME280;43247;52.828;-8.980;2023-02-28T01:12:52;103774.23;;;6.78;78.66
57412;BME280;43247;52.828;-8.980;2023-02-28T01:13:53;103772.95;;;6.78;78.69
57412;BME280;43247;52.828;-8.980;2023-02-28T01:14:53;103771.41;;;6.78;78.61
57412;BME280;43247;52.828;-8.980;2023-02-28T01:15:55;103769.68;;;6.78;78.62
57412;BME280;43247;52.828;-8.980;2023-02-28T01:16:54;103768.49;;;6.78;78.69
57412;BME280;43247;52.828;-8.980;2023-02-28T01:17:54;103768.75;;;6.77;78.59
57412;BME280;43247;52.828;-8.980;2023-02-28T01:18:54;103771.94;;;6.77;78.64
57412;BME280;43247;52.828;-8.980;2023-02-28T01:19:55;103771.88;;;6.77;78.66
57412;BME280;43247;52.828;-8.980;2023-02-28T01:20:55;103773.35;;;6.77;78.69
57412;BME280;43247;52.828;-8.980;2023-02-28T01:21:55;103773.00;;;6.77;78.65
57412;BME280;43247;52.828;-8.980;2023-02-28T01:22:55;103775.95;;;6.78;78.62
57412;BME280;43247;52.828;-8.980;2023-02-28T01:23:56;103774.01;;;6.78;78.61
57412;BME280;43247;52.828;-8.980;2023-02-28T01:24:55;103777.90;;;6.78;78.62
57412;BME280;43247;52.828;-8.980;2023-02-28T01:25:56;103778.42;;;6.77;78.67
57412;BME280;43247;52.828;-8.980;2023-02-28T01:26:56;103777.79;;;6.77;78.57
57412;BME280;43247;52.828;-8.980;2023-02-28T01:27:57;103776.32;;;6.77;78.55
57412;BME280;43247;52.828;-8.980;2023-02-28T01:28:58;103774.53;;;6.77;78.51
57412;BME280;43247;52.828;-8.980;2023-02-28T01:29:58;103774.03;;;6.77;78.49
57412;BME280;43247;52.828;-8.980;2023-02-28T01:30:58;103774.52;;;6.77;78.56
57412;BME280;43247;52.828;-8.980;2023-02-28T01:31:59;103777.22;;;6.77;78.52
57412;BME280;43247;52.828;-8.980;2023-02-28T01:33:00;103778.76;;;6.77;78.54
57412;BME280;43247;52.828;-8.980;2023-02-28T01:34:00;103782.84;;;6.77;78.49
57412;BME280;43247;52.828;-8.980;2023-02-28T01:35:00;103784.45;;;6.77;78.50
57412;BME280;43247;52.828;-8.980;2023-02-28T01:36:01;103783.83;;;6.77;78.41
57412;BME280;43247;52.828;-8.980;2023-02-28T01:37:01;103784.11;;;6.76;78.42
57412;BME280;43247;52.828;-8.980;2023-02-28T01:38:02;103782.72;;;6.75;78.43
57412;BME280;43247;52.828;-8.980;2023-02-28T01:39:02;103784.71;;;6.75;78.43
57412;BME280;43247;52.828;-8.980;2023-02-28T01:40:04;103783.81;;;6.74;78.48
57412;BME280;43247;52.828;-8.980;2023-02-28T01:41:05;103782.79;;;6.74;78.52
57412;BME280;43247;52.828;-8.980;2023-02-28T01:42:05;103782.16;;;6.74;78.60
57412;BME280;43247;52.828;-8.980;2023-02-28T01:43:10;103780.74;;;6.73;78.64
57412;BME280;43247;52.828;-8.980;2023-02-28T01:44:53;103781.54;;;6.73;78.54
57412;BME280;43247;52.828;-8.980;2023-02-28T01:46:06;103782.50;;;6.72;78.64
57412;BME280;43247;52.828;-8.980;2023-02-28T01:47:06;103781.13;;;6.72;78.72
57412;BME280;43247;52.828;-8.980;2023-02-28T01:48:08;103781.24;;;6.72;78.70
57412;BME280;43247;52.828;-8.980;2023-02-28T01:49:10;103782.21;;;6.71;78.75
57412;BME280;43247;52.828;-8.980;2023-02-28T01:50:11;103782.48;;;6.71;78.75
57412;BME280;43247;52.828;-8.980;2023-02-28T01:51:10;103784.20;;;6.70;78.66
57412;BME280;43247;52.828;-8.980;2023-02-28T01:52:08;103784.12;;;6.70;78.68
57412;BME280;43247;52.828;-8.980;2023-02-28T01:53:12;103786.80;;;6.70;78.71
57412;BME280;43247;52.828;-8.980;2023-02-28T01:54:12;103788.15;;;6.69;78.72
57412;BME280;43247;52.828;-8.980;2023-02-28T01:55:10;103789.26;;;6.69;78.75
57412;BME280;43247;52.828;-8.980;2023-02-28T01:56:11;103784.83;;;6.69;78.74
57412;BME280;43247;52.828;-8.980;2023-02-28T01:57:12;103782.20;;;6.69;78.72
57412;BME280;43247;52.828;-8.980;2023-02-28T01:58:09;103779.81;;;6.68;78.78
57412;BME280;43247;52.828;-8.980;2023-02-28T01:59:11;103780.69;;;6.68;78.73
57412;BME280;43247;52.828;-8.980;2023-02-28T02:00:12;103781.73;;;6.68;78.75
57412;BME280;43247;52.828;-8.980;2023-02-28T02:01:10;103785.21;;;6.68;78.75
57412;BME280;43247;52.828;-8.980;2023-02-28T02:02:10;103784.68;;;6.68;78.61
57412;BME280;43247;52.828;-8.980;2023-02-28T02:03:13;103784.24;;;6.67;78.62
57412;BME280;43247;52.828;-8.980;2023-02-28T02:04:10;103780.62;;;6.67;78.59
57412;BME280;43247;52.828;-8.980;2023-02-28T02:05:14;103781.10;;;6.66;78.53
57412;BME280;43247;52.828;-8.980;2023-02-28T02:06:11;103778.77;;;6.66;78.50
57412;BME280;43247;52.828;-8.980;2023-02-28T02:07:12;103780.66;;;6.67;78.43
57412;BME280;43247;52.828;-8.980;2023-02-28T02:08:13;103780.96;;;6.66;78.41
57412;BME280;43247;52.828;-8.980;2023-02-28T02:09:12;103785.67;;;6.66;78.50
57412;BME280;43247;52.828;-8.980;2023-02-28T02:10:14;103788.26;;;6.67;78.34
57412;BME280;43247;52.828;-8.980;2023-02-28T02:11:17;103792.24;;;6.66;78.31
57412;BME280;43247;52.828;-8.980;2023-02-28T02:12:22;103787.23;;;6.66;78.33
57412;BME280;43247;52.828;-8.980;2023-02-28T02:13:25;103788.47;;;6.65;78.25
57412;BME280;43247;52.828;-8.980;2023-02-28T02:14:23;103783.27;;;6.65;78.25
57412;BME280;43247;52.828;-8.980;2023-02-28T02:15:16;103784.17;;;6.64;78.25
57412;BME280;43247;52.828;-8.980;2023-02-28T02:16:23;103784.72;;;6.63;78.24
57412;BME280;43247;52.828;-8.980;2023-02-28T02:17:21;103787.15;;;6.64;78.15
57412;BME280;43247;52.828;-8.980;2023-02-28T02:18:22;103787.81;;;6.63;78.21
57412;BME280;43247;52.828;-8.980;2023-02-28T02:20:27;103788.53;;;6.62;78.14
57412;BME280;43247;52.828;-8.980;2023-02-28T02:21:31;103787.89;;;6.61;78.10
57412;BME280;43247;52.828;-8.980;2023-02-28T02:23:26;103790.53;;;6.60;78.06
57412;BME280;43247;52.828;-8.980;2023-02-28T02:24:30;103790.89;;;6.59;78.02
57412;BME280;43247;52.828;-8.980;2023-02-28T02:25:25;103787.87;;;6.59;77.98
57412;BME280;43247;52.828;-8.980;2023-02-28T02:27:23;103788.47;;;6.58;77.85
57412;BME280;43247;52.828;-8.980;2023-02-28T02:29:33;103788.28;;;6.57;77.78
57412;BME280;43247;52.828;-8.980;2023-02-28T02:30:32;103786.39;;;6.56;77.73
57412;BME280;43247;52.828;-8.980;2023-02-28T02:31:33;103785.61;;;6.56;77.72
57412;BME280;43247;52.828;-8.980;2023-02-28T02:33:29;103784.13;;;6.55;77.67
57412;BME280;43247;52.828;-8.980;2023-02-28T02:34:25;103783.13;;;6.55;77.62
57412;BME280;43247;52.828;-8.980;2023-02-28T02:35:23;103784.36;;;6.55;77.63
57412;BME280;43247;52.828;-8.980;2023-02-28T02:36:22;103786.49;;;6.54;77.52
57412;BME280;43247;52.828;-8.980;2023-02-28T02:37:27;103790.05;;;6.54;77.55
57412;BME280;43247;52.828;-8.980;2023-02-28T02:38:29;103790.05;;;6.54;77.51
57412;BME280;43247;52.828;-8.980;2023-02-28T02:39:27;103792.32;;;6.54;77.48
57412;BME280;43247;52.828;-8.980;2023-02-28T02:40:23;103787.76;;;6.53;77.48
57412;BME280;43247;52.828;-8.980;2023-02-28T02:41:26;103787.67;;;6.53;77.50
57412;BME280;43247;52.828;-8.980;2023-02-28T02:42:25;103787.06;;;6.54;77.61
57412;BME280;43247;52.828;-8.980;2023-02-28T02:43:25;103784.45;;;6.53;77.59
57412;BME280;43247;52.828;-8.980;2023-02-28T02:44:24;103785.85;;;6.54;77.54
57412;BME280;43247;52.828;-8.980;2023-02-28T02:45:24;103783.22;;;6.53;77.52
57412;BME280;43247;52.828;-8.980;2023-02-28T02:46:28;103783.24;;;6.53;77.56
57412;BME280;43247;52.828;-8.980;2023-02-28T02:47:26;103780.82;;;6.53;77.46
57412;BME280;43247;52.828;-8.980;2023-02-28T02:48:26;103778.91;;;6.53;77.51
57412;BME280;43247;52.828;-8.980;2023-02-28T02:49:26;103777.59;;;6.53;77.55
57412;BME280;43247;52.828;-8.980;2023-02-28T02:50:28;103779.36;;;6.53;77.61
57412;BME280;43247;52.828;-8.980;2023-02-28T02:51:24;103781.10;;;6.52;77.51
57412;BME280;43247;52.828;-8.980;2023-02-28T02:52:29;103783.63;;;6.52;77.44
57412;BME280;43247;52.828;-8.980;2023-02-28T02:53:27;103782.66;;;6.52;77.48
57412;BME280;43247;52.828;-8.980;2023-02-28T02:54:28;103779.72;;;6.51;77.48
57412;BME280;43247;52.828;-8.980;2023-02-28T02:55:25;103779.64;;;6.51;77.52
57412;BME280;43247;52.828;-8.980;2023-02-28T02:56:27;103782.00;;;6.50;77.51
57412;BME280;43247;52.828;-8.980;2023-02-28T02:57:29;103783.19;;;6.45;76.94
57412;BME280;43247;52.828;-8.980;2023-02-28T02:58:27;103783.28;;;6.33;77.06
57412;BME280;43247;52.828;-8.980;2023-02-28T02:59:26;103780.07;;;6.27;77.15
57412;BME280;43247;52.828;-8.980;2023-02-28T03:00:29;103780.26;;;6.21;77.27
57412;BME280;43247;52.828;-8.980;2023-02-28T03:01:26;103779.17;;;6.18;77.31
57412;BME280;43247;52.828;-8.980;2023-02-28T03:02:28;103781.17;;;6.17;77.48
57412;BME280;43247;52.828;-8.980;2023-02-28T03:03:26;103779.62;;;6.17;77.26
57412;BME280;43247;52.828;-8.980;2023-02-28T03:04:30;103780.69;;;6.15;77.36
57412;BME280;43247;52.828;-8.980;2023-02-28T03:05:28;103780.65;;;6.14;77.42
57412;BME280;43247;52.828;-8.980;2023-02-28T03:06:27;103784.77;;;6.15;77.44
57412;BME280;43247;52.828;-8.980;2023-02-28T03:07:27;103785.60;;;6.14;77.47
57412;BME280;43247;52.828;-8.980;2023-02-28T03:08:28;103787.23;;;6.14;77.56
57412;BME280;43247;52.828;-8.980;2023-02-28T03:09:27;103784.09;;;6.14;77.50
57412;BME280;43247;52.828;-8.980;2023-02-28T03:10:31;103784.47;;;6.21;77.36
57412;BME280;43247;52.828;-8.980;2023-02-28T03:11:28;103784.71;;;6.24;77.14
57412;BME280;43247;52.828;-8.980;2023-02-28T03:12:33;103785.05;;;6.30;76.91
57412;BME280;43247;52.828;-8.980;2023-02-28T03:13:38;103786.44;;;6.26;76.96
57412;BME280;43247;52.828;-8.980;2023-02-28T03:14:40;103787.29;;;6.29;76.96
57412;BME280;43247;52.828;-8.980;2023-02-28T03:15:34;103786.58;;;6.31;76.90
57412;BME280;43247;52.828;-8.980;2023-02-28T03:16:34;103784.44;;;6.33;76.64
57412;BME280;43247;52.828;-8.980;2023-02-28T03:17:41;103783.38;;;6.35;76.66
57412;BME280;43247;52.828;-8.980;2023-02-28T03:18:35;103780.10;;;6.37;76.48
57412;BME280;43247;52.828;-8.980;2023-02-28T03:19:37;103779.88;;;6.40;76.28
57412;BME280;43247;52.828;-8.980;2023-02-28T03:20:37;103777.04;;;6.40;76.29
57412;BME280;43247;52.828;-8.980;2023-02-28T03:21:35;103777.42;;;6.43;76.11
57412;BME280;43247;52.828;-8.980;2023-02-28T03:22:41;103775.47;;;6.46;76.16
57412;BME280;43247;52.828;-8.980;2023-02-28T03:23:38;103774.45;;;6.47;76.23
57412;BME280;43247;52.828;-8.980;2023-02-28T03:24:33;103775.05;;;6.48;76.31
57412;BME280;43247;52.828;-8.980;2023-02-28T03:25:35;103770.66;;;6.48;76.43
57412;BME280;43247;52.828;-8.980;2023-02-28T03:26:33;103772.90;;;6.48;76.24
57412;BME280;43247;52.828;-8.980;2023-02-28T03:27:36;103773.43;;;6.48;76.23
57412;BME280;43247;52.828;-8.980;2023-02-28T03:28:39;103776.00;;;6.47;76.11
57412;BME280;43247;52.828;-8.980;2023-02-28T03:29:35;103776.03;;;6.48;76.22
57412;BME280;43247;52.828;-8.980;2023-02-28T03:30:38;103777.18;;;6.47;76.38
57412;BME280;43247;52.828;-8.980;2023-02-28T03:31:36;103779.68;;;6.48;76.38
57412;BME280;43247;52.828;-8.980;2023-02-28T03:32:36;103777.16;;;6.48;76.26
57412;BME280;43247;52.828;-8.980;2023-02-28T03:33:35;103776.62;;;6.47;76.34
57412;BME280;43247;52.828;-8.980;2023-02-28T03:34:35;103775.00;;;6.46;76.23
57412;BME280;43247;52.828;-8.980;2023-02-28T03:35:36;103775.87;;;6.46;76.33
57412;BME280;43247;52.828;-8.980;2023-02-28T03:36:37;103775.07;;;6.46;76.34
57412;BME280;43247;52.828;-8.980;2023-02-28T03:37:36;103777.53;;;6.46;76.40
57412;BME280;43247;52.828;-8.980;2023-02-28T03:38:38;103777.76;;;6.46;76.23
57412;BME280;43247;52.828;-8.980;2023-02-28T03:39:37;103778.14;;;6.45;76.26
57412;BME280;43247;52.828;-8.980;2023-02-28T03:40:37;103779.75;;;6.44;76.30
57412;BME280;43247;52.828;-8.980;2023-02-28T03:41:38;103779.25;;;6.45;76.23
57412;BME280;43247;52.828;-8.980;2023-02-28T03:42:37;103779.73;;;6.45;76.37
57412;BME280;43247;52.828;-8.980;2023-02-28T03:43:38;103779.41;;;6.44;76.26
57412;BME280;43247;52.828;-8.980;2023-02-28T03:44:40;103778.53;;;6.43;76.12
57412;BME280;43247;52.828;-8.980;2023-02-28T03:45:38;103780.42;;;6.43;76.10
57412;BME280;43247;52.828;-8.980;2023-02-28T03:46:42;103781.39;;;6.43;76.16
57412;BME280;43247;52.828;-8.980;2023-02-28T03:47:40;103783.57;;;6.42;76.14
57412;BME280;43247;52.828;-8.980;2023-02-28T03:48:40;103786.97;;;6.42;76.06
57412;BME280;43247;52.828;-8.980;2023-02-28T03:49:41;103786.69;;;6.41;76.12
57412;BME280;43247;52.828;-8.980;2023-02-28T03:50:40;103787.21;;;6.41;76.03
57412;BME280;43247;52.828;-8.980;2023-02-28T03:51:39;103784.71;;;6.40;76.02
57412;BME280;43247;52.828;-8.980;2023-02-28T03:52:42;103783.13;;;6.41;76.00
57412;BME280;43247;52.828;-8.980;2023-02-28T03:53:42;103779.66;;;6.41;76.07
57412;BME280;43247;52.828;-8.980;2023-02-28T03:54:42;103775.48;;;6.40;76.06
57412;BME280;43247;52.828;-8.980;2023-02-28T03:55:42;103774.83;;;6.40;76.13
57412;BME280;43247;52.828;-8.980;2023-02-28T03:56:45;103778.84;;;6.39;76.15
57412;BME280;43247;52.828;-8.980;2023-02-28T03:57:43;103780.39;;;6.39;76.17
57412;BME280;43247;52.828;-8.980;2023-02-28T03:58:44;103785.10;;;6.38;76.18
57412;BME280;43247;52.828;-8.980;2023-02-28T03:59:43;103785.81;;;6.38;76.14
57412;BME280;43247;52.828;-8.980;2023-02-28T04:00:44;103789.12;;;6.38;76.21
57412;BME280;43247;52.828;-8.980;2023-02-28T04:01:42;103786.89;;;6.38;76.25
57412;BME280;43247;52.828;-8.980;2023-02-28T04:02:41;103784.55;;;6.37;76.22
57412;BME280;43247;52.828;-8.980;2023-02-28T04:03:41;103784.68;;;6.37;76.26
57412;BME280;43247;52.828;-8.980;2023-02-28T04:04:42;103783.98;;;6.37;76.27
57412;BME280;43247;52.828;-8.980;2023-02-28T04:05:48;103783.75;;;6.37;76.27
57412;BME280;43247;52.828;-8.980;2023-02-28T04:06:43;103789.18;;;6.36;76.35
57412;BME280;43247;52.828;-8.980;2023-02-28T04:07:42;103788.78;;;6.36;76.31
57412;BME280;43247;52.828;-8.980;2023-02-28T04:08:42;103791.83;;;6.35;76.34
57412;BME280;43247;52.828;-8.980;2023-02-28T04:09:43;103794.42;;;6.35;76.33
57412;BME280;43247;52.828;-8.980;2023-02-28T04:10:47;103795.85;;;6.35;76.34
57412;BME280;43247;52.828;-8.980;2023-02-28T04:11:45;103793.68;;;6.33;76.14
57412;BME280;43247;52.828;-8.980;2023-02-28T04:12:43;103792.12;;;6.22;75.53
57412;BME280;43247;52.828;-8.980;2023-02-28T04:13:44;103794.57;;;6.14;75.71
57412;BME280;43247;52.828;-8.980;2023-02-28T04:14:44;103793.66;;;6.03;76.02
57412;BME280;43247;52.828;-8.980;2023-02-28T04:15:44;103795.56;;;6.02;76.08
57412;BME280;43247;52.828;-8.980;2023-02-28T04:16:45;103794.65;;;6.00;76.18
57412;BME280;43247;52.828;-8.980;2023-02-28T04:17:44;103798.07;;;6.02;76.09
57412;BME280;43247;52.828;-8.980;2023-02-28T04:18:44;103795.83;;;6.04;76.05
57412;BME280;43247;52.828;-8.980;2023-02-28T04:19:45;103797.36;;;6.06;75.98
57412;BME280;43247;52.828;-8.980;2023-02-28T04:20:45;103800.71;;;6.06;75.95
57412;BME280;43247;52.828;-8.980;2023-02-28T04:21:47;103802.14;;;6.14;75.69
57412;BME280;43247;52.828;-8.980;2023-02-28T04:22:45;103806.00;;;6.14;75.68
57412;BME280;43247;52.828;-8.980;2023-02-28T04:23:45;103804.31;;;6.16;75.74
57412;BME280;43247;52.828;-8.980;2023-02-28T04:24:46;103805.29;;;6.15;75.66
57412;BME280;43247;52.828;-8.980;2023-02-28T04:25:46;103807.32;;;6.18;75.70
57412;BME280;43247;52.828;-8.980;2023-02-28T04:26:48;103806.27;;;6.20;75.61
57412;BME280;43247;52.828;-8.980;2023-02-28T04:27:46;103808.69;;;6.21;75.68
57412;BME280;43247;52.828;-8.980;2023-02-28T04:28:46;103810.17;;;6.21;75.58
57412;BME280;43247;52.828;-8.980;2023-02-28T04:29:47;103811.57;;;6.24;75.55
57412;BME280;43247;52.828;-8.980;2023-02-28T04:30:47;103814.07;;;6.26;75.42
57412;BME280;43247;52.828;-8.980;2023-02-28T04:31:48;103813.71;;;6.26;75.41
57412;BME280;43247;52.828;-8.980;2023-02-28T04:32:48;103811.89;;;6.28;75.61
57412;BME280;43247;52.828;-8.980;2023-02-28T04:33:48;103809.30;;;6.29;75.46
57412;BME280;43247;52.828;-8.980;2023-02-28T04:34:48;103802.49;;;6.30;75.50
57412;BME280;43247;52.828;-8.980;2023-02-28T04:35:52;103799.07;;;6.32;75.65
57412;BME280;43247;52.828;-8.980;2023-02-28T04:36:49;103797.70;;;6.32;75.60
57412;BME280;43247;52.828;-8.980;2023-02-28T04:37:49;103796.68;;;6.32;75.64
57412;BME280;43247;52.828;-8.980;2023-02-28T04:38:49;103798.06;;;6.32;75.65
57412;BME280;43247;52.828;-8.980;2023-02-28T04:39:49;103800.06;;;6.32;75.67
57412;BME280;43247;52.828;-8.980;2023-02-28T04:40:50;103802.56;;;6.33;75.81
57412;BME280;43247;52.828;-8.980;2023-02-28T04:41:50;103803.31;;;6.33;75.89
57412;BME280;43247;52.828;-8.980;2023-02-28T04:42:50;103804.08;;;6.32;75.80
57412;BME280;43247;52.828;-8.980;2023-02-28T04:43:51;103804.53;;;6.30;75.65
57412;BME280;43247;52.828;-8.980;2023-02-28T04:44:51;103804.55;;;6.17;75.92
57412;BME280;43247;52.828;-8.980;2023-02-28T04:45:51;103802.29;;;6.03;76.32
57412;BME280;43247;52.828;-8.980;2023-02-28T04:46:51;103801.64;;;6.02;76.36
57412;BME280;43247;52.828;-8.980;2023-02-28T04:47:51;103801.64;;;5.97;76.52
57412;BME280;43247;52.828;-8.980;2023-02-28T04:48:52;103799.65;;;5.97;76.57
57412;BME280;43247;52.828;-8.980;2023-02-28T04:49:52;103798.14;;;5.92;76.66
57412;BME280;43247;52.828;-8.980;2023-02-28T04:50:52;103797.98;;;5.98;76.54
57412;BME280;43247;52.828;-8.980;2023-02-28T04:51:53;103796.41;;;5.97;76.56
57412;BME280;43247;52.828;-8.980;2023-02-28T04:52:53;103797.27;;;6.00;76.51
57412;BME280;43247;52.828;-8.980;2023-02-28T04:53:54;103798.26;;;6.02;76.42
57412;BME280;43247;52.828;-8.980;2023-02-28T04:54:54;103799.22;;;6.02;76.39
57412;BME280;43247;52.828;-8.980;2023-02-28T04:55:54;103802.95;;;6.06;76.35
57412;BME280;43247;52.828;-8.980;2023-02-28T04:56:54;103803.34;;;6.05;76.39
57412;BME280;43247;52.828;-8.980;2023-02-28T04:57:54;103802.42;;;6.09;76.28
57412;BME280;43247;52.828;-8.980;2023-02-28T04:58:55;103802.98;;;6.10;76.17
57412;BME280;43247;52.828;-8.980;2023-02-28T04:59:55;103803.96;;;6.10;76.24
57412;BME280;43247;52.828;-8.980;2023-02-28T05:01:01;103802.88;;;6.02;76.42
57412;BME280;43247;52.828;-8.980;2023-02-28T05:01:55;103805.15;;;5.92;76.79
57412;BME280;43247;52.828;-8.980;2023-02-28T05:02:56;103806.59;;;5.95;76.77
57412;BME280;43247;52.828;-8.980;2023-02-28T05:03:58;103811.87;;;5.94;76.87
57412;BME280;43247;52.828;-8.980;2023-02-28T05:04:56;103814.72;;;5.92;76.92
57412;BME280;43247;52.828;-8.980;2023-02-28T05:05:56;103814.21;;;5.98;76.67
57412;BME280;43247;52.828;-8.980;2023-02-28T05:06:56;103813.73;;;6.04;76.48
57412;BME280;43247;52.828;-8.980;2023-02-28T05:07:57;103813.67;;;6.04;76.38
57412;BME280;43247;52.828;-8.980;2023-02-28T05:08:58;103812.61;;;6.03;76.49
57412;BME280;43247;52.828;-8.980;2023-02-28T05:09:58;103812.85;;;6.05;76.53
57412;BME280;43247;52.828;-8.980;2023-02-28T05:10:58;103810.57;;;6.11;76.54
57412;BME280;43247;52.828;-8.980;2023-02-28T05:11:58;103811.28;;;6.13;76.51
57412;BME280;43247;52.828;-8.980;2023-02-28T05:12:58;103812.66;;;6.08;76.56
57412;BME280;43247;52.828;-8.980;2023-02-28T05:13:59;103818.58;;;6.09;76.35
57412;BME280;43247;52.828;-8.980;2023-02-28T05:14:59;103820.57;;;6.11;76.51
57412;BME280;43247;52.828;-8.980;2023-02-28T05:16:00;103822.17;;;6.16;76.40
57412;BME280;43247;52.828;-8.980;2023-02-28T05:17:00;103821.43;;;6.18;76.51
57412;BME280;43247;52.828;-8.980;2023-02-28T05:18:00;103824.57;;;6.08;76.48
57412;BME280;43247;52.828;-8.980;2023-02-28T05:19:01;103825.34;;;6.02;76.75
57412;BME280;43247;52.828;-8.980;2023-02-28T05:20:01;103826.36;;;6.01;76.75
57412;BME280;43247;52.828;-8.980;2023-02-28T05:21:01;103825.34;;;6.02;76.73